Track Тарутин Никита

Time Latitude Longitude Accuracy (66% radius in meters) Altitude (meters) Speed (km/hour) Bearing (degrees) Battery (%) GPS flag
10:51:11 57.150622 39.348804 1.5 106.80000305176 0.51999998092651 111.796875 8 1 delete
10:51:06 57.150616 39.348768 1.5 106.59999847412 0.55000001192093 21.571655273438 8 1 delete
10:50:44 57.150578 39.348571 13.5 109.09999847412 0.5799999833107 175.02868652344 8 1 delete
10:40:43 57.150703 39.348411 3.5 102.90000152588 0.97999995946884 239.677734375 8 1 delete
10:40:38 57.150693 39.348477 3 106 0.53999996185303 295.07080078125 8 1 delete
10:40:12 57.150707 39.348582 14.5 99.800003051758 0.070000000298023 89.27490234375 8 1 delete
10:30:09 57.123836 39.322907 1.5 114.5 23.979999542236 26.801147460938 8 1 delete
10:30:04 57.122865 39.322134 1 112.19999694824 23.590000152588 16.58935546875 8 1 delete
10:29:59 57.121826 39.321663 1 110.40000152588 24.049999237061 12.409057617188 8 1 delete
10:29:54 57.120767 39.321250 1 111.19999694824 24.019998550415 12.178344726562 8 1 delete
10:29:49 57.119730 39.320826 1 110.69999694824 23.420000076294 12.496948242188 8 1 delete
10:29:44 57.118697 39.320410 1.5 110.40000152588 24.029998779297 12.354125976562 8 1 delete
10:29:38 57.117466 39.319918 4 105.90000152588 23.569999694824 12.930908203125 8 1 delete
10:29:32 57.116460 39.319466 9.5 107.59999847412 23.209999084473 12.969360351562 8 1 delete
10:19:27 57.008793 39.271978 1.5 148.60000610352 10.429999351501 353.78173828125 8 1 delete
10:19:22 57.008289 39.272106 1 147.19999694824 11.979999542236 352.90283203125 8 1 delete
10:19:17 57.007769 39.272251 1 149 11.659999847412 352.62817382812 8 1 delete
10:19:12 57.007238 39.272326 1 148.69999694824 10.969999313354 355.33081054688 8 1 delete
10:19:06 57.006765 39.272372 7.5 149.5 8.75 356.42395019531 8 1 delete
10:19:01 57.006389 39.272287 10.5 138.10000610352 6.1999998092651 32.568969726562 8 1 delete
10:08:55 56.950522 39.351876 1 180.39999389648 15.289999961853 311.923828125 8 1 delete
10:08:50 56.950069 39.352792 1 179.39999389648 15.39999961853 313.95080566406 8 1 delete
10:08:45 56.949562 39.353717 1 177.19999694824 16.379999160767 315.12084960938 8 1 delete
10:08:40 56.949027 39.354686 1 176.60000610352 16.619998931885 315.68115234375 8 1 delete
10:08:35 56.948494 39.355630 1.5 176.10000610352 16.529998779297 315.84045410156 8 1 delete
10:08:30 56.947931 39.356566 8 176.5 16.35000038147 314.68688964844 8 1 delete
10:08:25 56.947478 39.357598 11.5 186.80000305176 17.190000534058 313.66516113281 8 1 delete
09:58:17 56.903489 39.388553 6 152.60000610352 0 0 8 1 delete
09:57:56 56.903488 39.388557 7 152.10000610352 0.049999997019768 211.82189941406 8 1 delete
09:57:50 56.903658 39.388414 16 156.60000610352 0.87999999523163 23.472290039062 8 1 delete
09:47:46 56.855003 39.287939 1.5 162.5 11.039999961853 330.44128417969 8 1 delete
09:47:41 56.854563 39.288547 1.5 162.39999389648 13.14999961853 318.69689941406 8 1 delete
09:47:36 56.854138 39.289308 2 160.39999389648 13.170000076294 311.98974609375 8 1 delete
09:47:31 56.853811 39.290156 3 163.10000610352 12.989999771118 299.1357421875 8 1 delete
09:47:25 56.853584 39.291290 9.5 153.30000305176 14.099999427795 288.10546875 8 1 delete
09:47:20 56.853234 39.292433 20 150.39999389648 15.719999313354 288.18237304688 8 1 delete
09:37:15 56.821282 39.364100 7.5 158.69999694824 0 0 8 1 delete
09:37:00 56.821282 39.364100 8 158.69999694824 0 0 8 1 delete
09:26:44 56.821325 39.364221 8 161.30000305176 0 0 8 1 delete
09:26:23 56.821339 39.364228 10.5 158.69999694824 0.18999999761581 83.259887695312 8 1 delete
09:26:18 56.821137 39.363977 13.5 170.5 1.289999961853 16.864013671875 8 1 delete
09:16:11 56.821159 39.364467 2 157.10000610352 1.5499999523163 321.02600097656 8 1 delete
09:16:01 56.821048 39.364611 2 156.10000610352 1.4399999380112 321.9873046875 8 1 delete
09:15:51 56.820958 39.364752 4.5 159.5 1.4299999475479 319.71313476562 8 1 delete
09:15:46 56.820953 39.364962 9 178.39999389648 1.5599999427795 333.48999023438 8 1 delete
09:05:39 56.818015 39.368862 1.5 160 1.0799999237061 322.70690917969 8 1 delete
09:05:34 56.817971 39.368924 2 160.60000610352 1.3500000238419 323.33312988281 8 1 delete
09:05:24 56.817872 39.369038 3 159.39999389648 1.3799999952316 331.77062988281 8 1 delete
09:05:14 56.817780 39.369148 9.5 163.19999694824 1.5699999332428 330.46875 8 1 delete
08:55:08 56.812548 39.372782 1.5 156.89999389648 1.3199999332428 342.87780761719 8 1 delete